KOTM

Ottumwa Regional Airport

Ottumwa, Iowa, USA
METAR KOTM 191353Z AUTO 18010KT 10SM FEW080 OVC100 06/02 A2974 RMK AO2 SLP073 T00560022
Observed Flight Rules
Dec-19 @ 13:53 UTC (17 minutes ago) Visual Flight Rules
Wind Visibility Clouds
180° at 10 knots 10 miles
  • Few at 8,000' AGL
  • Overcast at 10,000' AGL
Temperatures Readings
Current 6°C / 43°F
Dewpoint 2°C / 36°F
Humidity 76%
Altimeter 29.74" Hg
Pressure 1007.3 hPa
Elevation 256
METAR KOTM 191353Z AUTO 18010KT 10SM FEW080 OVC100 06/02 A2974 RMK AO2 SLP073 T00560022
Observed Flight Rules
Dec-19 @ 13:53 UTC
(17 minutes ago)
VFR
Wind Visibility
180° at 10 knots 10 miles
Clouds
  • Few at 8,000' AGL
  • Overcast at 10,000' AGL
Temperature Dewpoint
6°C / 43°F 2°C / 36°F
Humidity Altimeter Pressure
76% 29.74" Hg 1007.3 hPa